createdAt,value
2023-09-02T00:02:21.388Z,21.09
2023-09-02T00:04:49.746Z,21.08
2023-09-02T00:07:17.830Z,21.09
2023-09-02T00:09:45.938Z,21.10
2023-09-02T00:12:14.481Z,21.05
2023-09-02T00:14:42.832Z,21.03
2023-09-02T00:17:12.433Z,20.99
2023-09-02T00:19:41.635Z,20.97
2023-09-02T00:22:09.978Z,20.94
2023-09-02T00:24:38.058Z,20.90
2023-09-02T00:27:06.946Z,20.88
2023-09-02T00:29:35.027Z,20.86
2023-09-02T00:32:02.767Z,20.85
2023-09-02T00:34:31.377Z,20.77
2023-09-02T00:37:01.398Z,20.75
2023-09-02T00:39:29.726Z,20.70
2023-09-02T00:41:59.167Z,20.70
2023-09-02T00:44:28.444Z,20.72
2023-09-02T00:46:59.560Z,20.70
2023-09-02T00:49:28.013Z,20.70
2023-09-02T00:51:56.025Z,20.68
2023-09-02T00:54:24.165Z,20.64
2023-09-02T00:56:53.274Z,20.60
2023-09-02T00:59:22.429Z,20.57
2023-09-02T01:01:51.070Z,20.54
2023-09-02T01:04:19.562Z,20.53
2023-09-02T01:06:50.579Z,20.51
2023-09-02T01:09:18.676Z,20.49
2023-09-02T01:11:46.939Z,20.48
2023-09-02T01:14:16.005Z,20.48
2023-09-02T01:16:43.646Z,20.37
2023-09-02T01:19:14.661Z,20.42
2023-09-02T01:22:14.772Z,20.45
2023-09-02T01:25:13.674Z,20.41
2023-09-02T01:27:46.025Z,20.38
2023-09-02T01:30:18.508Z,20.33
2023-09-02T01:32:50.683Z,20.29
2023-09-02T01:35:23.615Z,20.25
2023-09-02T01:37:57.536Z,20.24
2023-09-02T01:40:26.942Z,20.20
2023-09-02T01:42:57.736Z,20.17
2023-09-02T01:45:32.390Z,20.13
2023-09-02T01:48:01.061Z,20.07
2023-09-02T01:50:33.666Z,20.06
2023-09-02T01:53:02.083Z,20.05
2023-09-02T01:55:30.529Z,19.99
2023-09-02T01:57:59.541Z,19.96
2023-09-02T02:00:27.672Z,19.92
2023-09-02T02:02:56.261Z,19.92
2023-09-02T02:05:35.140Z,19.91
2023-09-02T02:08:08.603Z,19.88
2023-09-02T02:10:37.783Z,19.85
2023-09-02T02:13:07.955Z,19.85
2023-09-02T02:15:35.955Z,19.81
2023-09-02T02:18:04.277Z,19.80
2023-09-02T02:20:56.686Z,19.79
2023-09-02T02:23:24.908Z,19.76
2023-09-02T02:25:53.003Z,19.71
2023-09-02T02:28:20.975Z,19.71
2023-09-02T02:30:49.190Z,19.66
2023-09-02T02:33:17.412Z,19.67
2023-09-02T02:35:45.664Z,19.65
2023-09-02T02:38:13.805Z,19.64
2023-09-02T02:40:42.097Z,19.62
2023-09-02T02:43:10.594Z,19.58
2023-09-02T02:45:38.482Z,19.57
2023-09-02T02:48:16.930Z,19.55
2023-09-02T02:50:45.155Z,19.51
2023-09-02T02:53:13.621Z,19.52
2023-09-02T02:55:43.304Z,19.53
2023-09-02T02:58:13.704Z,19.56
2023-09-02T03:00:41.952Z,19.56
2023-09-02T03:03:11.507Z,19.60
2023-09-02T03:05:44.015Z,19.63
2023-09-02T03:08:11.933Z,19.69
2023-09-02T03:10:40.179Z,19.76
2023-09-02T03:13:08.122Z,19.85
2023-09-02T03:15:36.173Z,19.97
2023-09-02T03:18:04.537Z,20.09
2023-09-02T03:20:34.118Z,20.19
2023-09-02T03:23:06.928Z,20.34
2023-09-02T03:25:36.078Z,20.54
2023-09-02T03:28:04.046Z,21.75
2023-09-02T03:30:32.466Z,23.67
2023-09-02T03:33:01.380Z,25.21
2023-09-02T03:35:29.576Z,26.40
2023-09-02T03:37:57.777Z,27.65
2023-09-02T03:40:25.903Z,28.67
2023-09-02T03:42:54.766Z,29.39
2023-09-02T03:45:23.320Z,30.10
2023-09-02T03:47:51.623Z,30.66
2023-09-02T03:50:27.898Z,31.52
2023-09-02T03:52:55.779Z,32.15
2023-09-02T03:55:23.330Z,32.49
2023-09-02T03:57:51.047Z,32.99
2023-09-02T04:00:19.838Z,32.91
2023-09-02T04:02:48.243Z,32.93
2023-09-02T04:05:16.248Z,33.21
2023-09-02T04:07:44.662Z,33.62
2023-09-02T04:10:12.807Z,34.32
2023-09-02T04:12:40.820Z,35.03
2023-09-02T04:15:10.171Z,35.68
2023-09-02T04:17:38.204Z,36.33
2023-09-02T04:20:06.830Z,36.84
2023-09-02T04:22:34.972Z,37.01
2023-09-02T04:25:02.401Z,38.05
2023-09-02T04:27:30.486Z,38.40
2023-09-02T04:29:59.075Z,38.39
2023-09-02T04:32:27.444Z,38.08
2023-09-02T04:34:55.940Z,38.04
2023-09-02T04:37:23.783Z,37.09
2023-09-02T04:39:52.951Z,37.69
2023-09-02T04:44:52.037Z,38.74
2023-09-02T04:47:20.585Z,37.42
2023-09-02T04:49:48.899Z,38.21
2023-09-02T04:52:17.184Z,38.55
2023-09-02T04:54:46.679Z,38.23
2023-09-02T04:57:15.391Z,37.86
2023-09-02T04:59:44.473Z,38.67
2023-09-02T05:02:12.579Z,39.11
2023-09-02T05:04:40.846Z,39.57
2023-09-02T05:07:09.398Z,39.03
2023-09-02T05:09:37.559Z,38.68
2023-09-02T05:12:06.043Z,38.41
2023-09-02T05:14:34.222Z,37.70
2023-09-02T05:17:02.137Z,37.78
2023-09-02T05:19:29.857Z,38.05
2023-09-02T05:21:58.833Z,38.46
2023-09-02T05:24:26.900Z,39.10
2023-09-02T05:26:54.920Z,38.71
2023-09-02T05:29:22.789Z,38.23
2023-09-02T05:31:50.968Z,38.46
2023-09-02T05:34:19.282Z,38.31
2023-09-02T05:36:50.098Z,37.81
2023-09-02T05:39:18.501Z,37.89
2023-09-02T05:41:47.064Z,37.57
2023-09-02T05:44:15.109Z,38.34
2023-09-02T05:46:43.709Z,38.42
2023-09-02T05:49:13.249Z,37.99
2023-09-02T05:51:41.802Z,37.60
2023-09-02T05:54:10.950Z,36.68
2023-09-02T05:56:39.041Z,36.96
2023-09-02T05:59:07.367Z,37.41
2023-09-02T06:01:35.502Z,37.83
2023-09-02T06:04:04.073Z,38.29
2023-09-02T06:06:33.935Z,38.67
2023-09-02T06:09:02.323Z,38.06
2023-09-02T06:11:32.502Z,37.39
2023-09-02T06:14:00.129Z,37.82
2023-09-02T06:19:13.068Z,38.04
2023-09-02T06:21:41.132Z,38.32
2023-09-02T06:24:09.174Z,37.51
2023-09-02T06:26:37.079Z,33.66
2023-09-02T06:29:05.357Z,30.88
2023-09-02T06:31:34.577Z,29.26
2023-09-02T06:34:07.374Z,28.48
2023-09-02T06:36:38.013Z,27.69
2023-09-02T06:39:08.844Z,27.21
2023-09-02T06:41:36.826Z,26.87
2023-09-02T06:44:05.218Z,26.71
2023-09-02T06:46:35.333Z,26.54
2023-09-02T06:49:06.831Z,26.33
2023-09-02T06:51:35.201Z,26.35
2023-09-02T06:54:03.194Z,26.32
2023-09-02T06:56:31.456Z,26.39
2023-09-02T06:58:59.504Z,26.44
2023-09-02T07:01:28.311Z,26.30
2023-09-02T07:03:58.216Z,26.30
2023-09-02T07:06:26.503Z,26.35
2023-09-02T07:08:54.917Z,26.26
2023-09-02T07:11:22.996Z,26.18
2023-09-02T07:13:50.927Z,25.99
2023-09-02T07:16:19.045Z,26.23
2023-09-02T07:18:47.145Z,26.26
2023-09-02T07:21:15.752Z,26.22
2023-09-02T07:23:46.718Z,26.29
2023-09-02T07:26:14.780Z,26.57
2023-09-02T07:28:44.065Z,26.74
2023-09-02T07:31:11.936Z,26.59
2023-09-02T07:33:40.746Z,26.50
2023-09-02T07:36:13.247Z,26.23
2023-09-02T07:38:44.696Z,26.17
2023-09-02T07:41:13.033Z,26.00
2023-09-02T07:43:41.383Z,26.12
2023-09-02T07:46:24.211Z,26.50
2023-09-02T07:48:52.675Z,26.84
2023-09-02T07:51:20.619Z,27.05
2023-09-02T07:53:48.602Z,27.02
2023-09-02T07:56:16.733Z,26.64
2023-09-02T07:58:48.189Z,26.64
2023-09-02T08:01:17.411Z,26.41
2023-09-02T08:03:45.713Z,26.16
2023-09-02T08:06:13.882Z,26.37
2023-09-02T08:08:41.609Z,26.48
2023-09-02T08:11:09.658Z,26.68
2023-09-02T08:13:37.646Z,26.74
2023-09-02T08:16:06.908Z,26.90
2023-09-02T08:18:35.769Z,27.00
2023-09-02T08:21:12.338Z,26.84
2023-09-02T08:23:40.785Z,26.60
2023-09-02T08:26:14.658Z,26.82
2023-09-02T08:28:43.277Z,27.06
2023-09-02T08:31:13.303Z,26.87
2023-09-02T08:33:41.648Z,26.84
2023-09-02T08:36:19.734Z,26.77
2023-09-02T08:38:48.994Z,26.76
2023-09-02T08:41:32.409Z,26.76
2023-09-02T08:44:28.827Z,26.89
2023-09-02T08:46:57.828Z,26.88
2023-09-02T08:49:26.291Z,26.89
2023-09-02T08:51:54.643Z,26.85
2023-09-02T08:54:23.655Z,26.63
2023-09-02T08:56:55.882Z,26.52
2023-09-02T08:59:24.113Z,26.78
2023-09-02T09:01:52.380Z,26.95
2023-09-02T09:04:20.856Z,26.89
2023-09-02T09:06:49.162Z,26.87
2023-09-02T09:09:18.426Z,26.76
2023-09-02T09:11:46.663Z,26.51
2023-09-02T09:14:24.769Z,26.67
2023-09-02T09:16:55.542Z,26.89
2023-09-02T09:19:24.848Z,26.87
2023-09-02T09:21:53.395Z,26.66
2023-09-02T09:24:21.821Z,26.86
2023-09-02T09:26:50.942Z,26.68
2023-09-02T09:29:22.620Z,26.65
2023-09-02T09:31:50.912Z,27.07
2023-09-02T09:34:19.330Z,27.23
2023-09-02T09:36:58.280Z,27.49
2023-09-02T09:39:42.754Z,27.35
2023-09-02T09:42:15.645Z,27.34
2023-09-02T09:45:07.260Z,27.51
2023-09-02T09:47:37.933Z,27.71
2023-09-02T09:50:14.582Z,27.79
2023-09-02T09:52:59.777Z,27.78
2023-09-02T09:55:28.405Z,27.78
2023-09-02T09:57:57.554Z,27.50
2023-09-02T10:00:27.265Z,27.46
2023-09-02T10:03:03.949Z,27.61
2023-09-02T10:05:42.607Z,27.83
2023-09-02T10:08:12.168Z,27.85
2023-09-02T10:10:41.803Z,28.16
2023-09-02T10:13:10.265Z,28.18
2023-09-02T10:15:38.418Z,28.30
2023-09-02T10:18:06.638Z,28.34
2023-09-02T10:20:36.844Z,28.49
2023-09-02T10:23:12.679Z,28.34
2023-09-02T10:26:01.864Z,28.13
2023-09-02T10:28:39.028Z,27.97
2023-09-02T10:31:23.695Z,28.09
2023-09-02T10:34:06.457Z,28.09
2023-09-02T10:36:35.250Z,28.17
2023-09-02T10:39:05.582Z,28.08
2023-09-02T10:41:34.163Z,27.93
2023-09-02T10:44:02.878Z,27.80
2023-09-02T10:46:31.188Z,27.91
2023-09-02T10:49:00.689Z,27.78
2023-09-02T10:51:30.439Z,27.67
2023-09-02T10:53:59.501Z,27.51
2023-09-02T10:56:35.160Z,27.76
2023-09-02T10:59:07.556Z,28.12
2023-09-02T11:01:46.402Z,28.14
2023-09-02T11:04:15.138Z,28.40
2023-09-02T11:07:26.327Z,28.43
2023-09-02T11:09:56.196Z,28.43
2023-09-02T11:12:26.713Z,28.68
2023-09-02T11:15:09.666Z,28.89
2023-09-02T11:17:39.755Z,28.88
2023-09-02T11:20:10.129Z,29.04
2023-09-02T11:23:06.588Z,28.96
2023-09-02T11:25:44.219Z,28.80
2023-09-02T11:28:21.532Z,28.74
2023-09-02T11:31:06.434Z,28.79
2023-09-02T11:33:36.200Z,28.98
2023-09-02T11:36:08.313Z,29.14
2023-09-02T11:38:36.566Z,29.25
2023-09-02T11:41:04.626Z,29.03
2023-09-02T11:43:34.195Z,28.99
2023-09-02T11:46:04.388Z,28.73
2023-09-02T11:48:32.657Z,28.52
2023-09-02T11:51:00.997Z,28.64
2023-09-02T11:53:30.515Z,28.48
2023-09-02T11:55:59.038Z,28.58
2023-09-02T11:58:27.563Z,28.54
2023-09-02T12:00:55.856Z,28.29
2023-09-02T12:03:26.700Z,28.28
2023-09-02T12:05:56.942Z,28.18
2023-09-02T12:08:25.495Z,28.01
2023-09-02T12:10:54.975Z,27.89
2023-09-02T12:13:23.656Z,27.94
2023-09-02T12:15:53.171Z,27.89
2023-09-02T12:18:22.538Z,27.78
2023-09-02T12:20:51.877Z,27.81
2023-09-02T12:23:20.571Z,27.83
2023-09-02T12:26:11.435Z,27.87
2023-09-02T12:28:50.135Z,27.84
2023-09-02T12:31:18.963Z,27.89
2023-09-02T12:33:55.636Z,27.90
2023-09-02T12:36:33.912Z,27.99
2023-09-02T12:39:01.664Z,28.01
2023-09-02T12:41:43.075Z,28.09
2023-09-02T12:44:16.740Z,28.02
2023-09-02T12:46:45.081Z,27.93
2023-09-02T12:49:14.997Z,28.16
2023-09-02T12:51:44.556Z,28.19
2023-09-02T12:54:15.116Z,28.37
2023-09-02T12:56:43.410Z,28.33
2023-09-02T12:59:11.787Z,28.46
2023-09-02T13:01:41.020Z,28.72
2023-09-02T13:04:09.097Z,28.90
2023-09-02T13:06:37.201Z,28.80
2023-09-02T13:09:07.162Z,28.61
2023-09-02T13:11:35.428Z,28.46
2023-09-02T13:14:03.333Z,28.56
2023-09-02T13:16:31.203Z,28.40
2023-09-02T13:18:59.435Z,28.28
2023-09-02T13:21:27.756Z,28.03
2023-09-02T13:23:55.869Z,27.92
2023-09-02T13:26:25.983Z,28.01
2023-09-02T13:28:54.761Z,27.97
2023-09-02T13:31:24.188Z,27.96
2023-09-02T13:33:52.346Z,28.03
2023-09-02T13:36:20.349Z,28.10
2023-09-02T13:39:00.680Z,28.14
2023-09-02T13:41:28.805Z,28.10
2023-09-02T13:43:57.298Z,27.94
2023-09-02T13:46:25.511Z,28.07
2023-09-02T13:48:53.323Z,28.15
2023-09-02T13:51:23.771Z,28.08
2023-09-02T13:53:53.788Z,28.04
2023-09-02T13:56:22.310Z,27.82
2023-09-02T13:58:52.673Z,27.85
2023-09-02T14:01:20.763Z,27.92
2023-09-02T14:03:50.329Z,27.88
2023-09-02T14:06:18.796Z,27.72
2023-09-02T14:08:48.563Z,27.67
2023-09-02T14:11:19.081Z,27.69
2023-09-02T14:13:50.471Z,27.76
2023-09-02T14:16:18.815Z,27.65
2023-09-02T14:18:48.839Z,27.64
2023-09-02T14:21:17.282Z,27.57
2023-09-02T14:23:45.746Z,27.54
2023-09-02T14:26:17.068Z,27.52
2023-09-02T14:28:46.921Z,27.48
2023-09-02T14:31:15.550Z,27.49
2023-09-02T14:33:46.468Z,27.53
2023-09-02T14:36:39.345Z,27.40
2023-09-02T14:39:07.459Z,27.33
2023-09-02T14:41:36.072Z,27.34
2023-09-02T14:44:04.581Z,27.30
2023-09-02T14:46:35.980Z,27.23
2023-09-02T14:49:04.669Z,27.15
2023-09-02T14:51:33.270Z,27.15
2023-09-02T14:54:06.010Z,27.12
2023-09-02T14:56:44.496Z,27.08
2023-09-02T14:59:14.551Z,27.08
2023-09-02T15:01:44.380Z,27.06
2023-09-02T15:04:12.515Z,27.01
2023-09-02T15:06:42.357Z,26.99
2023-09-02T15:09:11.957Z,26.87
2023-09-02T15:11:41.905Z,26.79
2023-09-02T15:14:11.036Z,26.76
2023-09-02T15:16:40.006Z,26.65
2023-09-02T15:19:12.813Z,26.61
2023-09-02T15:21:40.707Z,26.60
2023-09-02T15:24:09.630Z,26.51
2023-09-02T15:26:40.167Z,26.49
2023-09-02T15:29:14.411Z,26.42
2023-09-02T15:31:47.411Z,26.36
2023-09-02T15:34:17.861Z,26.25
2023-09-02T15:36:49.536Z,26.20
2023-09-02T15:39:25.905Z,26.12
2023-09-02T15:41:57.791Z,26.05
2023-09-02T15:44:25.950Z,25.97
2023-09-02T15:46:54.901Z,25.91
2023-09-02T15:49:25.985Z,25.87
2023-09-02T15:51:54.871Z,25.82
2023-09-02T15:54:23.109Z,25.73
2023-09-02T15:56:51.056Z,25.65
2023-09-02T15:59:19.330Z,25.58
2023-09-02T16:01:47.631Z,25.51
2023-09-02T16:04:17.052Z,25.41
2023-09-02T16:06:46.356Z,25.30
2023-09-02T16:09:14.650Z,25.21
2023-09-02T16:11:42.821Z,25.12
2023-09-02T16:14:10.952Z,25.06
2023-09-02T16:16:38.906Z,24.96
2023-09-02T16:19:07.744Z,24.90
2023-09-02T16:21:36.817Z,24.84
2023-09-02T16:24:05.955Z,24.75
2023-09-02T16:26:34.461Z,24.73
2023-09-02T16:29:02.734Z,24.64
2023-09-02T16:31:30.912Z,24.63
2023-09-02T16:33:59.270Z,24.57
2023-09-02T16:36:27.662Z,24.49
2023-09-02T16:38:56.833Z,24.46
2023-09-02T16:41:25.728Z,24.45
2023-09-02T16:44:04.573Z,24.42
2023-09-02T16:46:34.089Z,24.32
2023-09-02T16:49:02.360Z,24.25
2023-09-02T16:51:31.319Z,24.20
2023-09-02T16:54:02.282Z,24.20
2023-09-02T16:56:31.984Z,24.13
2023-09-02T16:59:00.974Z,24.05
2023-09-02T17:01:29.477Z,23.93
2023-09-02T17:03:58.019Z,23.80
2023-09-02T17:06:33.949Z,23.71
2023-09-02T17:09:03.849Z,23.60
2023-09-02T17:11:32.241Z,23.50
2023-09-02T17:14:00.585Z,23.46
2023-09-02T17:16:28.977Z,23.36
2023-09-02T17:18:57.263Z,23.26
2023-09-02T17:21:26.156Z,23.18
2023-09-02T17:23:54.428Z,23.13
2023-09-02T17:26:25.231Z,23.07
2023-09-02T17:28:53.715Z,23.04
2023-09-02T17:31:24.000Z,22.95
2023-09-02T17:33:52.201Z,22.90
2023-09-02T17:36:20.587Z,22.84
2023-09-02T17:38:48.884Z,22.78
2023-09-02T17:41:17.617Z,22.74
2023-09-02T17:43:45.429Z,22.67
2023-09-02T17:46:14.503Z,22.60
2023-09-02T17:48:43.165Z,22.58
2023-09-02T17:51:11.890Z,22.50
2023-09-02T17:53:40.369Z,22.50
2023-09-02T17:56:08.219Z,22.52
2023-09-02T17:58:36.243Z,22.56
2023-09-02T18:01:04.481Z,22.51
2023-09-02T18:03:33.174Z,22.51
2023-09-02T18:06:01.508Z,22.46
2023-09-02T18:08:46.739Z,22.45
2023-09-02T18:11:18.440Z,22.41
2023-09-02T18:13:47.077Z,22.41
2023-09-02T18:16:15.432Z,22.38
2023-09-02T18:18:45.658Z,22.37
2023-09-02T18:21:14.077Z,22.40
2023-09-02T18:23:42.397Z,22.47
2023-09-02T18:26:10.832Z,22.54
2023-09-02T18:28:39.812Z,22.52
2023-09-02T18:31:08.261Z,22.52
2023-09-02T18:33:36.427Z,22.48
2023-09-02T18:36:04.618Z,22.44
2023-09-02T18:38:32.870Z,22.39
2023-09-02T18:41:01.009Z,22.43
2023-09-02T18:43:29.582Z,22.50
2023-09-02T18:46:03.960Z,22.54
2023-09-02T18:48:32.697Z,22.46
2023-09-02T18:51:00.696Z,22.44
2023-09-02T18:53:28.754Z,22.41
2023-09-02T18:55:56.854Z,22.34
2023-09-02T18:58:25.652Z,22.18
2023-09-02T19:00:53.929Z,21.98
2023-09-02T19:03:22.481Z,21.78
2023-09-02T19:05:51.871Z,21.71
2023-09-02T19:08:20.311Z,21.68
2023-09-02T19:10:48.983Z,21.53
2023-09-02T19:13:17.670Z,21.31
2023-09-02T19:15:45.952Z,21.13
2023-09-02T19:18:14.447Z,20.94
2023-09-02T19:20:43.281Z,20.77
2023-09-02T19:23:11.633Z,20.64
2023-09-02T19:25:40.224Z,20.53
2023-09-02T19:28:08.808Z,20.46
2023-09-02T19:30:37.088Z,20.38
2023-09-02T19:33:05.343Z,20.32
2023-09-02T19:35:33.740Z,20.29
2023-09-02T19:38:03.172Z,20.27
2023-09-02T19:40:31.970Z,20.19
2023-09-02T19:43:00.607Z,20.19
2023-09-02T19:45:29.442Z,20.19
2023-09-02T19:47:57.493Z,20.16
2023-09-02T19:50:25.945Z,20.13
2023-09-02T19:52:54.224Z,20.11
2023-09-02T19:55:22.645Z,20.09
2023-09-02T19:57:50.846Z,20.04
2023-09-02T20:00:19.725Z,20.04
2023-09-02T20:02:50.558Z,20.04
2023-09-02T20:05:18.745Z,20.15
2023-09-02T20:07:47.406Z,20.16
2023-09-02T20:10:18.429Z,20.22
2023-09-02T20:12:47.630Z,20.29
2023-09-02T20:15:17.077Z,20.36
2023-09-02T20:17:46.409Z,20.49
2023-09-02T20:20:14.763Z,20.62
2023-09-02T20:22:43.354Z,20.66
2023-09-02T20:25:11.998Z,20.68
2023-09-02T20:27:40.146Z,20.77
2023-09-02T20:30:08.628Z,20.82
2023-09-02T20:32:37.216Z,20.81
2023-09-02T20:35:06.030Z,20.81
2023-09-02T20:37:34.357Z,20.87
2023-09-02T20:40:02.830Z,20.94
2023-09-02T20:42:31.305Z,20.99
2023-09-02T20:44:59.397Z,21.07
2023-09-02T20:47:27.571Z,21.13
2023-09-02T20:49:55.838Z,21.15
2023-09-02T20:52:24.498Z,21.17
2023-09-02T20:54:56.408Z,21.21
2023-09-02T20:57:24.661Z,21.20
2023-09-02T20:59:57.628Z,21.18
2023-09-02T21:02:28.047Z,21.15
2023-09-02T21:04:58.601Z,21.08
2023-09-02T21:07:26.582Z,21.14
2023-09-02T21:09:56.970Z,21.13
2023-09-02T21:12:29.380Z,21.10
2023-09-02T21:14:59.292Z,21.10
2023-09-02T21:17:27.600Z,21.05
2023-09-02T21:19:56.045Z,21.03
2023-09-02T21:22:24.207Z,21.03
2023-09-02T21:24:52.652Z,20.99
2023-09-02T21:27:20.827Z,20.98
2023-09-02T21:29:53.547Z,20.93
2023-09-02T21:32:21.255Z,20.88
2023-09-02T21:34:49.654Z,20.89
2023-09-02T21:37:17.839Z,20.83
2023-09-02T21:39:46.008Z,20.83
2023-09-02T21:42:14.652Z,20.74
2023-09-02T21:44:43.192Z,20.67
2023-09-02T21:47:11.726Z,20.59
2023-09-02T21:49:39.912Z,20.56
2023-09-02T21:52:08.490Z,20.50
2023-09-02T21:54:36.834Z,20.43
2023-09-02T21:57:05.362Z,20.37
2023-09-02T21:59:33.715Z,20.33
2023-09-02T22:02:01.831Z,20.23
2023-09-02T22:04:33.057Z,20.17
2023-09-02T22:07:01.661Z,20.10
2023-09-02T22:09:30.261Z,20.04
2023-09-02T22:11:58.210Z,20.03
2023-09-02T22:14:26.718Z,20.04
2023-09-02T22:16:55.453Z,19.96
2023-09-02T22:19:23.506Z,19.92
2023-09-02T22:21:52.389Z,19.87
2023-09-02T22:24:20.135Z,19.90
2023-09-02T22:26:48.437Z,19.91
2023-09-02T22:29:16.712Z,19.90
2023-09-02T22:31:45.018Z,19.86
2023-09-02T22:34:13.377Z,19.87
2023-09-02T22:36:41.671Z,19.81
2023-09-02T22:39:12.418Z,19.68
2023-09-02T22:41:43.842Z,19.58
2023-09-02T22:44:12.594Z,19.50
2023-09-02T22:46:41.181Z,19.48
2023-09-02T22:49:23.410Z,19.42
2023-09-02T22:52:19.345Z,19.37
2023-09-02T22:54:47.429Z,19.28
2023-09-02T22:57:15.873Z,19.20
2023-09-02T22:59:44.212Z,19.15
2023-09-02T23:02:12.788Z,19.07
2023-09-02T23:04:41.839Z,19.01
2023-09-02T23:07:10.525Z,19.00
2023-09-02T23:09:44.651Z,18.97
2023-09-02T23:12:12.909Z,18.89
2023-09-02T23:14:40.749Z,18.83
2023-09-02T23:17:09.307Z,18.78
2023-09-02T23:19:37.702Z,18.76
2023-09-02T23:22:06.698Z,18.76
2023-09-02T23:24:34.878Z,18.70
2023-09-02T23:27:02.791Z,18.68
2023-09-02T23:29:31.155Z,18.68
2023-09-02T23:31:59.581Z,18.68
2023-09-02T23:34:28.134Z,18.69
2023-09-02T23:36:55.717Z,18.66
2023-09-02T23:39:24.376Z,18.74
2023-09-02T23:41:52.149Z,18.78
2023-09-02T23:44:20.141Z,18.90
2023-09-02T23:46:47.827Z,18.98
2023-09-02T23:49:17.591Z,18.99
2023-09-02T23:51:46.025Z,18.92
2023-09-02T23:54:14.694Z,18.81
2023-09-02T23:56:43.289Z,18.77
2023-09-02T23:59:11.829Z,18.73
